Impacts TAF Board
For situational awareness. Not to be used for flight planning purposes.
IDs:

KMFR - Medford/Roque Valley, OR, US

Issued at 1126 UTC 07 Jul 2020
Updated at 1345 UTC 07 Jul 2020
Potential Impact None Slight Moderate High
Time1253Z 07/14Z 07/15Z 07/16Z 07/17Z 07/18Z 07/19Z 07/20Z 07/21Z 07/22Z 07/23Z 08/00Z 08/01Z 08/02Z>>
Type OBS PRVL PRVL PRVL PRVL PRVL PRVL PRVL PRVL PRVL PRVL PRVL PRVL PRVL
VIS 10 >6 >6 >6 >6 >6 >6 >6 >6 >6 >6 >6 >6 >6
CIG -- 40 40 40 40 40 40 40 40 40 40 -- -- --
Cover SCT BKN BKN BKN BKN BKN BKN BKN BKN BKN BKN SKC SKC SKC
FltCat VFR VFR VFR VFR VFR VFR VFR VFR VFR VFR VFR VFR VFR VFR
WX -- -- -- -- -- -- -- -- -- -- -- -- -- --
WDir VRB 340 340 340 340 340 340 340 340 340 340 310 310 340
WSpd 0 7 7 7 7 7 7 7 7 7 7 9 9 10
WGst -- -- -- -- -- -- -- -- -- -- -- 16 16 --
Raw TAF
KMFR 071126Z 0712/0812 34007KT P6SM BKN040
  FM080000 31009G16KT P6SM SKC
  FM080200 34010KT P6SM SKC
  FM080400 36002KT P6SM SKC


Raw METAR
KMFR 071253Z 00000KT 10SM SCT036 SCT043 12/08 A3013 RMK AO2 SLP195 T01170078
KMFR 071153Z AUTO 02004KT 10SM BKN042 12/08 A3011 RMK AO2 SLP189 T01220078 10161 20122 53002
KMFR 071053Z AUTO 00000KT 10SM OVC041 14/08 A3010 RMK AO2 SLP186 T01440083

METAR Board
Radar Display
Forecast Discussion
For situational awareness. Not to be used for flight planning purposes.